Flight Track Log - Related Links

Times and Time Zones

All times are in EDT time to prevent confusion due to time zone crossing. See the SKW4664 flight status page for this flight to view local times or setup timezone preferences in your user account.

Time Position Orientation Groundspeed Altitude Reporting Facility
EDT Latitude Longitude Course Direction KTS MPH feet Rate Location/Type
Sun 10:49:44 AM 44.8833 -93.2667 235° Southwest 162 186 2,400  Level Minneapolis TRACON
Sun 10:50:27 AM 44.8869 -93.3142 276° West 203 234 3,600 2,114 Climbing Minneapolis Center
Sun 10:51:29 AM 44.8639 -93.4086 251° West 274 315 6,100 2,736 Climbing Minneapolis Center
Sun 10:52:00 AM 44.5886 -93.8229 235° Southwest  Level FlightAware Approximate
Sun 10:52:32 AM 44.8106 -93.4942 229° Southwest 295 339 9,300  Level Minneapolis Center
Sun 10:53:00 AM 44.5017 -93.9633 235° Southwest  Level FlightAware Approximate
Sun 10:53:34 AM 44.7422 -93.5989 227° Southwest 305 351 12,700  Level Minneapolis Center
Sun 10:54:00 AM 44.4253 -94.1162 235° Southwest  Level FlightAware Approximate
Sun 10:54:36 AM 44.6833 -93.6892 227° Southwest 315 362 15,000  Level Minneapolis Center
Sun 10:55:00 AM 44.3761 -94.2145 235° Southwest  Level FlightAware Approximate
Sun 10:55:38 AM 44.6350 -93.7933 237° Southwest 320 368 17,100  Level Minneapolis Center
Sun 10:56:40 AM 44.5961 -93.9072 244° Southwest 323 372 18,900 1,742 Climbing Minneapolis Center
Sun 10:57:42 AM 44.5558 -94.0233 244° Southwest 329 379 20,700 1,452 Climbing Minneapolis Center
Sun 10:58:44 AM 44.5050 -94.1728 245° Southwest 354 407 21,900 629 Climbing Minneapolis Center
Sun 10:59:46 AM 44.4592 -94.3081 245° Southwest 381 438 22,000 48 Climbing Minneapolis Center
Sun 11:00:50 AM 44.4106 -94.4503 244° Southwest 402 463 22,000  Level Minneapolis Center
Sun 11:01:52 AM 44.3611 -94.5933 244° Southwest 408 470 22,000  Level Minneapolis Center
Sun 11:02:54 AM 44.3056 -94.7539 244° Southwest 410 472 22,000  Level Minneapolis Center
Sun 11:03:56 AM 44.2550 -94.8972 244° Southwest 412 474 22,000  Level Minneapolis Center
Sun 11:04:58 AM 44.2044 -95.0378 243° Southwest 408 470 22,000  Level Minneapolis Center
Sun 11:06:00 AM 44.1553 -95.1761 244° Southwest 402 463 22,000  Level Minneapolis Center
Sun 11:07:02 AM 44.0964 -95.3428 244° Southwest 400 460 22,000  Level Minneapolis Center
Sun 11:08:04 AM 44.0469 -95.4794 243° Southwest 397 457 22,000  Level Minneapolis Center
Sun 11:09:06 AM 43.9975 -95.6161 243° Southwest 395 455 22,000 -145 Level Minneapolis Center
Sun 11:10:08 AM 43.9486 -95.7506 243° Southwest 392 451 21,700 -1,632 Descending Minneapolis Center
Sun 11:11:11 AM 43.9022 -95.8817 244° Southwest 383 441 18,600 -2,592 Descending Minneapolis Center
Sun 11:12:13 AM 43.8564 -96.0064 243° Southwest 370 426 16,300 -2,293 Descending Minneapolis Center
Sun 11:13:14 AM 43.8114 -96.1200 241° Southwest 346 398 13,900 -2,390 Descending Minneapolis Center
Sun 11:14:16 AM 43.7589 -96.2125 232° Southwest 314 361 11,400 -2,274 Descending Minneapolis Center
Sun 11:15:18 AM 43.6981 -96.3236 233° Southwest 304 350 9,200 -1,968 Descending Minneapolis Center
Sun 11:16:21 AM 43.6506 -96.4092 233° Southwest 295 339 7,300 -1,392 Descending Minneapolis Center
Sun 11:17:23 AM 43.6072 -96.4878 233° Southwest 278 320 6,300 -871 Descending Minneapolis Center
Sun 11:18:25 AM 43.5739 -96.5506 234° Southwest 238 274 5,500 -919 Descending Minneapolis Center
Sun 11:19:27 AM 43.5439 -96.6053 233° Southwest 205 236 4,400 -1,016 Descending Minneapolis Center
Sun 11:20:29 AM 43.5178 -96.6619 238° Southwest 188 216 3,400 -1,113 Descending Minneapolis Center
Sun 11:21:31 AM 43.5447 -96.7156 305° West 155 178 2,100 -823 Descending Minneapolis Center
Sun 11:22:33 AM 43.5742 -96.7367 333° Northwest 147 169 1,700 -387 Descending Minneapolis Center

Login

Don't have an account? Register now (free) for customized features, flight alerts, and more!